createdAt,value
2019-06-01T00:00:10.827Z,13.75
2019-06-01T00:05:00.984Z,11.57
2019-06-01T00:10:03.388Z,13.30
2019-06-01T00:15:05.918Z,12.87
2019-06-01T00:20:07.489Z,12.68
2019-06-01T00:25:09.043Z,10.40
2019-06-01T00:30:25.943Z,17.37
2019-06-01T00:35:14.234Z,12.40
2019-06-01T00:40:15.805Z,12.53
2019-06-01T00:45:17.216Z,12.30
2019-06-01T00:50:18.671Z,12.23
2019-06-01T00:55:20.158Z,15.20
2019-06-01T01:00:21.730Z,13.27
2019-06-01T01:05:23.128Z,13.48
2019-06-01T01:10:24.649Z,11.73
2019-06-01T01:15:26.156Z,13.40
2019-06-01T01:20:27.744Z,14.47
2019-06-01T01:25:29.375Z,13.08
2019-06-01T01:30:30.817Z,14.83
2019-06-01T01:35:32.341Z,14.55
2019-06-01T01:40:33.758Z,15.20
2019-06-01T01:45:35.229Z,20.93
2019-06-01T01:50:36.754Z,13.30
2019-06-01T01:55:38.233Z,17.63
2019-06-01T02:00:41.702Z,14.10
2019-06-01T02:05:43.195Z,14.03
2019-06-01T02:10:44.760Z,18.77
2019-06-01T02:15:46.231Z,16.23
2019-06-01T02:20:47.807Z,15.68
2019-06-01T02:25:49.281Z,18.27
2019-06-01T02:30:50.797Z,20.37
2019-06-01T02:35:54.192Z,15.25
2019-06-01T02:40:57.011Z,18.10
2019-06-01T02:46:00.498Z,17.83
2019-06-01T02:51:04.083Z,16.67
2019-06-01T02:56:06.251Z,17.23
2019-06-01T03:01:55.932Z,16.87
2019-06-01T03:06:44.740Z,16.17
2019-06-01T03:11:46.356Z,16.80
2019-06-01T03:16:47.856Z,19.27
2019-06-01T03:21:49.365Z,18.47
2019-06-01T03:26:51.588Z,18.63
2019-06-01T03:31:53.135Z,21.12
2019-06-01T03:36:56.313Z,18.93
2019-06-01T03:41:57.923Z,18.87
2019-06-01T03:46:59.402Z,19.62
2019-06-01T03:52:00.962Z,18.97
2019-06-01T03:57:03.646Z,21.83
2019-06-01T04:02:07.006Z,20.00
2019-06-01T04:07:08.606Z,23.53
2019-06-01T04:12:10.080Z,20.53
2019-06-01T04:17:12.235Z,18.70
2019-06-01T04:22:13.940Z,20.97
2019-06-01T04:27:15.422Z,22.40
2019-06-01T04:32:16.870Z,21.00
2019-06-01T04:37:18.258Z,18.80
2019-06-01T04:42:19.776Z,22.13
2019-06-01T04:47:21.233Z,20.57
2019-06-01T04:52:22.733Z,20.52
2019-06-01T04:57:24.188Z,16.33
2019-06-01T05:02:25.706Z,17.43
2019-06-01T05:07:27.323Z,19.00
2019-06-01T05:12:28.874Z,17.10
2019-06-01T05:17:30.381Z,18.65
2019-06-01T05:22:32.043Z,17.55
2019-06-01T05:27:33.555Z,16.17
2019-06-01T05:32:35.134Z,18.23
2019-06-01T05:37:36.756Z,21.20
2019-06-01T05:42:38.279Z,16.63
2019-06-01T05:47:39.767Z,22.00
2019-06-01T05:52:41.619Z,20.23
2019-06-01T05:57:43.019Z,18.03
2019-06-01T06:02:44.554Z,17.80
2019-06-01T06:07:46.327Z,23.18
2019-06-01T06:12:47.857Z,19.17
2019-06-01T06:17:49.419Z,18.00
2019-06-01T06:22:50.971Z,22.58
2019-06-01T06:27:52.736Z,17.85
2019-06-01T06:32:54.177Z,22.45
2019-06-01T06:37:55.768Z,17.32
2019-06-01T06:42:57.365Z,15.15
2019-06-01T06:47:58.894Z,15.63
2019-06-01T06:53:00.516Z,11.70
2019-06-01T06:58:02.541Z,12.30
2019-06-01T07:03:04.405Z,11.50
2019-06-01T07:08:05.874Z,13.83
2019-06-01T07:13:07.292Z,8.43
2019-06-01T07:18:08.677Z,7.25
2019-06-01T07:23:10.185Z,11.95
2019-06-01T07:28:11.669Z,7.08
2019-06-01T07:33:13.170Z,7.22
2019-06-01T07:38:14.581Z,9.55
2019-06-01T07:43:15.896Z,9.95
2019-06-01T07:48:17.416Z,8.68
2019-06-01T07:53:19.017Z,9.58
2019-06-01T07:58:20.894Z,7.87
2019-06-01T08:03:25.760Z,9.00
2019-06-01T08:08:27.245Z,7.28
2019-06-01T08:13:33.476Z,6.95
2019-06-01T08:18:32.854Z,6.80
2019-06-01T08:23:34.289Z,8.45
2019-06-01T08:28:35.809Z,9.68
2019-06-01T08:33:37.214Z,6.87
2019-06-01T08:38:38.855Z,6.05
2019-06-01T08:43:40.295Z,6.22
2019-06-01T08:48:41.767Z,7.53
2019-06-01T08:53:43.301Z,4.78
2019-06-01T08:58:44.897Z,3.05
2019-06-01T09:03:47.084Z,3.22
2019-06-01T09:08:48.675Z,3.83
2019-06-01T09:13:52.271Z,5.53
2019-06-01T09:18:53.527Z,4.03
2019-06-01T09:23:55.012Z,7.35
2019-06-01T09:28:56.570Z,4.33
2019-06-01T09:33:58.060Z,5.35
2019-06-01T09:38:59.614Z,5.78
2019-06-01T09:44:01.266Z,7.17
2019-06-01T09:49:02.692Z,6.90
2019-06-01T09:54:04.099Z,7.80
2019-06-01T09:59:06.773Z,6.33
2019-06-01T10:04:08.273Z,4.90
2019-06-01T10:09:09.805Z,10.63
2019-06-01T10:14:11.384Z,4.85
2019-06-01T10:19:12.810Z,6.05
2019-06-01T10:24:14.366Z,5.20
2019-06-01T10:29:15.964Z,3.98
2019-06-01T10:34:17.467Z,5.12
2019-06-01T10:39:19.855Z,6.60
2019-06-01T10:44:21.452Z,5.12
2019-06-01T10:49:22.935Z,4.83
2019-06-01T10:54:24.459Z,5.72
2019-06-01T10:59:26.026Z,5.03
2019-06-01T11:04:27.853Z,5.37
2019-06-01T11:09:29.389Z,4.75
2019-06-01T11:14:32.901Z,6.10
2019-06-01T11:19:35.268Z,7.17
2019-06-01T11:24:37.446Z,6.80
2019-06-01T11:29:47.858Z,9.65
2019-06-01T11:34:42.541Z,6.72
2019-06-01T11:39:44.782Z,6.67
2019-06-01T11:44:46.473Z,7.08
2019-06-01T11:49:47.951Z,7.25
2019-06-01T11:54:49.556Z,5.87
2019-06-01T11:59:51.011Z,9.53
2019-06-01T12:04:52.379Z,7.37
2019-06-01T12:09:53.916Z,8.05
2019-06-01T12:14:55.426Z,7.20
2019-06-01T12:19:56.983Z,7.47
2019-06-01T12:24:58.543Z,6.85
2019-06-01T12:29:59.950Z,6.55
2019-06-01T12:35:03.362Z,6.75
2019-06-01T12:40:07.766Z,5.30
2019-06-01T12:45:16.442Z,5.25
2019-06-01T12:50:18.003Z,6.67
2019-06-01T12:55:19.726Z,6.30
2019-06-01T13:00:21.195Z,7.30
2019-06-01T13:05:22.705Z,6.67
2019-06-01T13:10:25.402Z,6.10
2019-06-01T13:15:28.770Z,8.05
2019-06-01T13:20:30.363Z,8.55
2019-06-01T13:25:31.893Z,5.30
2019-06-01T13:30:33.508Z,8.45
2019-06-01T13:35:34.990Z,6.30
2019-06-01T13:40:36.660Z,7.45
2019-06-01T13:45:38.161Z,6.58
2019-06-01T13:50:39.688Z,6.28
2019-06-01T13:55:41.235Z,5.40
2019-06-01T14:00:42.760Z,7.20
2019-06-01T14:05:44.691Z,6.58
2019-06-01T14:10:47.162Z,6.80
2019-06-01T14:15:49.495Z,7.95
2019-06-01T14:20:51.754Z,7.83
2019-06-01T14:25:54.272Z,5.95
2019-06-01T14:30:56.461Z,6.22
2019-06-01T14:35:58.140Z,6.95
2019-06-01T14:40:59.482Z,7.58
2019-06-01T14:46:00.872Z,6.22
2019-06-01T14:51:02.341Z,6.33
2019-06-01T14:56:03.977Z,6.53
2019-06-01T15:01:05.638Z,5.40
2019-06-01T15:06:07.171Z,8.78
2019-06-01T15:11:08.773Z,7.70
2019-06-01T15:16:10.307Z,6.85
2019-06-01T15:21:11.761Z,8.65
2019-06-01T15:26:13.059Z,8.53
2019-06-01T15:31:16.786Z,6.65
2019-06-01T15:36:18.340Z,6.90
2019-06-01T15:41:20.114Z,5.80
2019-06-01T15:46:21.876Z,6.08
2019-06-01T15:51:25.830Z,8.50
2019-06-01T15:56:27.385Z,9.40
2019-06-01T16:01:28.820Z,8.23
2019-06-01T16:06:30.435Z,6.05
2019-06-01T16:11:31.985Z,5.30
2019-06-01T16:16:33.437Z,8.78
2019-06-01T16:21:35.116Z,7.22
2019-06-01T16:26:36.629Z,8.43
2019-06-01T16:31:38.113Z,6.15
2019-06-01T16:36:41.795Z,6.00
2019-06-01T16:41:43.448Z,6.65
2019-06-01T16:46:44.955Z,5.50
2019-06-01T16:51:53.201Z,6.58
2019-06-01T16:56:55.930Z,8.00
2019-06-01T17:01:58.987Z,7.97
2019-06-01T17:07:00.778Z,6.12
2019-06-01T17:12:03.453Z,6.97
2019-06-01T17:17:05.228Z,4.95
2019-06-01T17:22:07.683Z,6.42
2019-06-01T17:27:09.427Z,4.80
2019-06-01T17:32:23.590Z,6.25
2019-06-01T17:37:14.687Z,8.38
2019-06-01T17:42:16.358Z,7.53
2019-06-01T17:47:17.902Z,5.28
2019-06-01T17:52:19.376Z,8.33
2019-06-01T17:57:20.822Z,7.80
2019-06-01T18:02:22.421Z,9.15
2019-06-01T18:07:23.853Z,5.97
2019-06-01T18:12:25.379Z,6.40
2019-06-01T18:17:26.947Z,7.78
2019-06-01T18:22:28.403Z,13.20
2019-06-01T18:27:30.023Z,10.72
2019-06-01T18:32:31.634Z,9.90
2019-06-01T18:37:33.170Z,12.98
2019-06-01T18:42:34.703Z,11.30
2019-06-01T18:47:36.237Z,10.72
2019-06-01T18:52:38.033Z,9.78
2019-06-01T18:57:40.317Z,13.53
2019-06-01T19:02:42.328Z,12.07
2019-06-01T19:07:51.025Z,15.10
2019-06-01T19:12:52.770Z,13.62
2019-06-01T19:17:56.480Z,13.75
2019-06-01T19:22:57.786Z,15.55
2019-06-01T19:27:59.255Z,12.23
2019-06-01T19:33:00.765Z,14.47
2019-06-01T19:38:02.453Z,13.85
2019-06-01T19:43:04.402Z,14.35
2019-06-01T19:48:05.932Z,13.50
2019-06-01T19:53:08.536Z,10.30
2019-06-01T19:58:10.547Z,11.33
2019-06-01T20:03:14.764Z,10.32
2019-06-01T20:08:18.054Z,13.05
2019-06-01T20:13:21.427Z,11.60
2019-06-01T20:18:25.805Z,11.55
2019-06-01T20:23:27.470Z,11.68
2019-06-01T20:28:31.210Z,9.80
2019-06-01T20:33:33.479Z,10.23
2019-06-01T20:38:35.152Z,11.65
2019-06-01T20:43:36.775Z,12.73
2019-06-01T20:48:42.085Z,12.68
2019-06-01T20:53:43.463Z,11.45
2019-06-01T20:58:45.002Z,12.28
2019-06-01T21:03:46.876Z,13.15
2019-06-01T21:08:48.392Z,13.00
2019-06-01T21:13:49.978Z,13.65
2019-06-01T21:19:01.530Z,11.63
2019-06-01T21:24:03.334Z,13.38
2019-06-01T21:29:05.060Z,13.70
2019-06-01T21:34:06.468Z,14.40
2019-06-01T21:39:08.015Z,16.40
2019-06-01T21:44:09.505Z,14.58
2019-06-01T21:49:11.075Z,17.12
2019-06-01T21:54:12.540Z,19.42
2019-06-01T21:59:14.049Z,20.43
2019-06-01T22:04:16.637Z,19.27
2019-06-01T22:09:19.108Z,22.75
2019-06-01T22:14:21.345Z,17.25
2019-06-01T22:19:23.889Z,21.80
2019-06-01T22:24:26.004Z,18.48
2019-06-01T22:29:28.599Z,20.50
2019-06-01T22:34:30.228Z,16.35
2019-06-01T22:39:31.636Z,22.77
2019-06-01T22:44:33.146Z,20.23
2019-06-01T22:49:34.653Z,21.48
2019-06-01T22:54:36.231Z,18.30
2019-06-01T22:59:37.648Z,19.05
2019-06-01T23:04:39.040Z,16.80
2019-06-01T23:09:40.606Z,18.85
2019-06-01T23:14:42.113Z,20.68
2019-06-01T23:19:43.635Z,22.62
2019-06-01T23:24:45.167Z,18.55
2019-06-01T23:29:46.706Z,17.25
2019-06-01T23:34:48.206Z,19.95
2019-06-01T23:39:49.857Z,18.85
2019-06-01T23:44:51.332Z,17.12
2019-06-01T23:49:52.833Z,18.07
2019-06-01T23:54:54.306Z,20.35
2019-06-01T23:59:55.829Z,22.77
